sensor_id;sensor_type;location;lat;lon;timestamp;pressure;altitude;pressure_sealevel;temperature;humidity
75594;BME280;64176;49.156;7.810;2023-06-05T00:02:06;99306.34;;;11.70;64.94
75594;BME280;64176;49.156;7.810;2023-06-05T00:04:50;99302.09;;;12.02;63.94
75594;BME280;64176;49.156;7.810;2023-06-05T00:07:35;99295.19;;;11.92;63.80
75594;BME280;64176;49.156;7.810;2023-06-05T00:10:21;99296.91;;;12.11;63.42
75594;BME280;64176;49.156;7.810;2023-06-05T00:13:05;99290.84;;;12.21;63.33
75594;BME280;64176;49.156;7.810;2023-06-05T00:15:51;99283.94;;;11.97;64.01
75594;BME280;64176;49.156;7.810;2023-06-05T00:18:36;99297.75;;;11.96;63.99
75594;BME280;64176;49.156;7.810;2023-06-05T00:21:23;99296.88;;;11.78;64.61
75594;BME280;64176;49.156;7.810;2023-06-05T00:24:09;99291.72;;;11.90;64.39
75594;BME280;64176;49.156;7.810;2023-06-05T00:26:53;99290.78;;;11.63;65.44
75594;BME280;64176;49.156;7.810;2023-06-05T00:29:37;99292.56;;;11.89;64.45
75594;BME280;64176;49.156;7.810;2023-06-05T00:32:26;99290.84;;;11.86;64.67
75594;BME280;64176;49.156;7.810;2023-06-05T00:35:10;99295.16;;;11.81;64.61
75594;BME280;64176;49.156;7.810;2023-06-05T00:37:54;99292.44;;;11.31;65.93
75594;BME280;64176;49.156;7.810;2023-06-05T00:40:41;99293.28;;;11.22;66.86
75594;BME280;64176;49.156;7.810;2023-06-05T00:43:30;99288.16;;;11.50;66.03
75594;BME280;64176;49.156;7.810;2023-06-05T00:46:14;99286.44;;;11.52;65.92
75594;BME280;64176;49.156;7.810;2023-06-05T00:48:59;99283.00;;;11.62;65.42
75594;BME280;64176;49.156;7.810;2023-06-05T00:51:45;99285.59;;;11.48;66.00
75594;BME280;64176;49.156;7.810;2023-06-05T00:54:29;99283.88;;;11.59;65.33
75594;BME280;64176;49.156;7.810;2023-06-05T00:57:14;99287.34;;;11.67;64.98
75594;BME280;64176;49.156;7.810;2023-06-05T00:59:58;99281.31;;;11.75;64.84
75594;BME280;64176;49.156;7.810;2023-06-05T01:02:42;99283.00;;;11.45;65.53
75594;BME280;64176;49.156;7.810;2023-06-05T01:05:26;99287.22;;;11.13;67.12
75594;BME280;64176;49.156;7.810;2023-06-05T01:08:10;99288.59;;;10.51;68.96
75594;BME280;64176;49.156;7.810;2023-06-05T01:11:00;99283.78;;;11.15;67.07
75594;BME280;64176;49.156;7.810;2023-06-05T01:14:15;99285.50;;;11.15;66.71
75594;BME280;64176;49.156;7.810;2023-06-05T01:17:12;99282.03;;;11.17;66.33
75594;BME280;64176;49.156;7.810;2023-06-05T01:20:06;99276.81;;;11.01;67.12
75594;BME280;64176;49.156;7.810;2023-06-05T01:22:53;99277.78;;;11.33;66.11
75594;BME280;64176;49.156;7.810;2023-06-05T01:25:37;99282.91;;;11.19;66.22
75594;BME280;64176;49.156;7.810;2023-06-05T01:28:28;99274.31;;;11.29;66.03
75594;BME280;64176;49.156;7.810;2023-06-05T01:31:17;99276.91;;;11.26;66.21
75594;BME280;64176;49.156;7.810;2023-06-05T01:34:07;99279.25;;;10.72;67.71
75594;BME280;64176;49.156;7.810;2023-06-05T01:36:55;99278.56;;;11.09;66.83
75594;BME280;64176;49.156;7.810;2023-06-05T01:39:45;99271.63;;;11.01;66.91
75594;BME280;64176;49.156;7.810;2023-06-05T01:42:36;99274.09;;;10.73;68.14
75594;BME280;64176;49.156;7.810;2023-06-05T01:45:21;99275.84;;;10.83;67.85
75594;BME280;64176;49.156;7.810;2023-06-05T01:48:08;99265.44;;;10.67;68.57
75594;BME280;64176;49.156;7.810;2023-06-05T01:50:57;99268.84;;;10.61;68.92
75594;BME280;64176;49.156;7.810;2023-06-05T01:53:46;99256.84;;;10.69;68.60
75594;BME280;64176;49.156;7.810;2023-06-05T01:56:33;99266.22;;;10.53;69.45
75594;BME280;64176;49.156;7.810;2023-06-05T01:59:20;99263.72;;;10.72;69.03
75594;BME280;64176;49.156;7.810;2023-06-05T02:02:04;99259.34;;;10.54;69.14
75594;BME280;64176;49.156;7.810;2023-06-05T02:04:51;99264.50;;;10.51;69.65
75594;BME280;64176;49.156;7.810;2023-06-05T02:07:52;99257.69;;;10.65;68.72
75594;BME280;64176;49.156;7.810;2023-06-05T02:10:37;99260.22;;;10.56;68.79
75594;BME280;64176;49.156;7.810;2023-06-05T02:13:27;99259.34;;;10.54;69.01
75594;BME280;64176;49.156;7.810;2023-06-05T02:16:16;99250.56;;;10.28;69.30
75594;BME280;64176;49.156;7.810;2023-06-05T02:19:00;99248.06;;;10.41;69.24
75594;BME280;64176;49.156;7.810;2023-06-05T02:21:47;99251.19;;;9.98;71.10
75594;BME280;64176;49.156;7.810;2023-06-05T02:24:34;99261.75;;;10.28;70.38
75594;BME280;64176;49.156;7.810;2023-06-05T02:27:18;99262.34;;;9.95;71.75
75594;BME280;64176;49.156;7.810;2023-06-05T02:30:03;99245.31;;;10.15;70.61
75594;BME280;64176;49.156;7.810;2023-06-05T02:32:50;99255.66;;;10.18;70.54
75594;BME280;64176;49.156;7.810;2023-06-05T02:35:42;99261.81;;;10.33;69.97
75594;BME280;64176;49.156;7.810;2023-06-05T02:38:26;99269.19;;;9.89;71.18
75594;BME280;64176;49.156;7.810;2023-06-05T02:41:12;99260.66;;;9.99;71.44
75594;BME280;64176;49.156;7.810;2023-06-05T02:43:56;99248.56;;;9.92;71.13
75594;BME280;64176;49.156;7.810;2023-06-05T02:46:41;99266.75;;;10.04;71.22
75594;BME280;64176;49.156;7.810;2023-06-05T02:49:30;99262.63;;;10.26;70.08
75594;BME280;64176;49.156;7.810;2023-06-05T02:52:15;99260.53;;;9.83;71.63
75594;BME280;64176;49.156;7.810;2023-06-05T02:55:02;99259.88;;;10.07;71.22
75594;BME280;64176;49.156;7.810;2023-06-05T02:57:46;99247.75;;;9.97;71.20
75594;BME280;64176;49.156;7.810;2023-06-05T03:00:35;99265.50;;;9.61;72.87
75594;BME280;64176;49.156;7.810;2023-06-05T03:03:20;99250.25;;;9.88;71.91
75594;BME280;64176;49.156;7.810;2023-06-05T03:06:09;99266.66;;;9.95;71.44
75594;BME280;64176;49.156;7.810;2023-06-05T03:08:59;99267.22;;;9.62;72.00
75594;BME280;64176;49.156;7.810;2023-06-05T03:11:47;99268.47;;;10.08;70.99
75594;BME280;64176;49.156;7.810;2023-06-05T03:14:31;99269.31;;;10.04;71.20
75594;BME280;64176;49.156;7.810;2023-06-05T03:17:15;99266.56;;;9.85;71.21
75594;BME280;64176;49.156;7.810;2023-06-05T03:20:02;99277.53;;;9.62;72.53
75594;BME280;64176;49.156;7.810;2023-06-05T03:22:49;99268.16;;;9.68;71.98
75594;BME280;64176;49.156;7.810;2023-06-05T03:25:33;99271.16;;;9.25;73.81
75594;BME280;64176;49.156;7.810;2023-06-05T03:28:18;99267.19;;;9.56;72.90
75594;BME280;64176;49.156;7.810;2023-06-05T03:31:05;99269.69;;;9.48;72.97
75594;BME280;64176;49.156;7.810;2023-06-05T03:33:53;99269.78;;;9.59;72.56
75594;BME280;64176;49.156;7.810;2023-06-05T03:36:37;99272.47;;;9.72;71.81
75594;BME280;64176;49.156;7.810;2023-06-05T03:39:29;99267.34;;;9.75;72.15
75594;BME280;64176;49.156;7.810;2023-06-05T03:42:13;99274.03;;;9.54;72.84
75594;BME280;64176;49.156;7.810;2023-06-05T03:45:02;99266.47;;;9.73;71.71
75594;BME280;64176;49.156;7.810;2023-06-05T03:47:47;99269.03;;;9.69;71.36
75594;BME280;64176;49.156;7.810;2023-06-05T03:50:33;99278.31;;;9.53;73.11
75594;BME280;64176;49.156;7.810;2023-06-05T03:53:21;99279.41;;;9.76;71.96
75594;BME280;64176;49.156;7.810;2023-06-05T03:56:09;99277.50;;;9.57;72.69
75594;BME280;64176;49.156;7.810;2023-06-05T03:58:56;99272.91;;;9.26;73.63
75594;BME280;64176;49.156;7.810;2023-06-05T04:01:40;99276.66;;;9.57;73.08
75594;BME280;64176;49.156;7.810;2023-06-05T04:04:27;99266.34;;;9.61;72.17
75594;BME280;64176;49.156;7.810;2023-06-05T04:07:17;99281.88;;;9.64;71.89
75594;BME280;64176;49.156;7.810;2023-06-05T04:10:01;99273.50;;;9.88;71.01
75594;BME280;64176;49.156;7.810;2023-06-05T04:12:48;99280.34;;;9.83;71.42
75594;BME280;64176;49.156;7.810;2023-06-05T04:15:33;99267.38;;;9.78;71.43
75594;BME280;64176;49.156;7.810;2023-06-05T04:18:18;99263.97;;;9.81;71.68
75594;BME280;64176;49.156;7.810;2023-06-05T04:21:07;99276.00;;;9.83;71.32
75594;BME280;64176;49.156;7.810;2023-06-05T04:23:52;99274.31;;;9.82;71.05
75594;BME280;64176;49.156;7.810;2023-06-05T04:26:37;99267.50;;;9.95;71.00
75594;BME280;64176;49.156;7.810;2023-06-05T04:29:27;99264.94;;;9.95;71.40
75594;BME280;64176;49.156;7.810;2023-06-05T04:32:11;99270.28;;;10.15;70.98
75594;BME280;64176;49.156;7.810;2023-06-05T04:34:55;99265.00;;;10.03;71.28
75594;BME280;64176;49.156;7.810;2023-06-05T04:37:41;99269.41;;;10.14;70.63
75594;BME280;64176;49.156;7.810;2023-06-05T04:40:26;99267.78;;;10.26;70.06
75594;BME280;64176;49.156;7.810;2023-06-05T04:43:11;99271.25;;;10.31;70.23
75594;BME280;64176;49.156;7.810;2023-06-05T04:46:01;99273.84;;;10.32;70.81
75594;BME280;64176;49.156;7.810;2023-06-05T04:48:45;99269.53;;;10.27;71.04
75594;BME280;64176;49.156;7.810;2023-06-05T04:51:29;99265.97;;;10.17;71.35
75594;BME280;64176;49.156;7.810;2023-06-05T04:54:13;99266.06;;;10.26;70.82
75594;BME280;64176;49.156;7.810;2023-06-05T04:57:00;99274.91;;;10.60;69.35
75594;BME280;64176;49.156;7.810;2023-06-05T04:59:45;99279.16;;;10.55;69.07
75594;BME280;64176;49.156;7.810;2023-06-05T05:02:35;99269.88;;;10.90;67.71
75594;BME280;64176;49.156;7.810;2023-06-05T05:05:20;99274.22;;;11.05;67.30
75594;BME280;64176;49.156;7.810;2023-06-05T05:08:06;99274.31;;;11.25;66.77
75594;BME280;64176;49.156;7.810;2023-06-05T05:10:51;99277.69;;;11.07;68.55
75594;BME280;64176;49.156;7.810;2023-06-05T05:13:38;99270.88;;;11.34;68.26
75594;BME280;64176;49.156;7.810;2023-06-05T05:16:22;99280.38;;;11.41;68.18
75594;BME280;64176;49.156;7.810;2023-06-05T05:19:06;99276.06;;;11.34;68.34
75594;BME280;64176;49.156;7.810;2023-06-05T05:21:51;99276.09;;;11.55;67.16
75594;BME280;64176;49.156;7.810;2023-06-05T05:24:35;99278.78;;;11.81;67.33
75594;BME280;64176;49.156;7.810;2023-06-05T05:27:20;99276.19;;;12.02;66.57
75594;BME280;64176;49.156;7.810;2023-06-05T05:30:07;99274.44;;;12.18;66.26
75594;BME280;64176;49.156;7.810;2023-06-05T05:32:54;99266.59;;;12.53;65.23
75594;BME280;64176;49.156;7.810;2023-06-05T05:35:41;99265.59;;;12.93;63.37
75594;BME280;64176;49.156;7.810;2023-06-05T05:38:25;99263.00;;;12.99;62.96
75594;BME280;64176;49.156;7.810;2023-06-05T05:41:09;99264.69;;;13.19;61.92
75594;BME280;64176;49.156;7.810;2023-06-05T05:43:53;99262.06;;;13.25;62.19
75594;BME280;64176;49.156;7.810;2023-06-05T05:46:37;99255.88;;;13.44;62.05
75594;BME280;64176;49.156;7.810;2023-06-05T05:49:21;99260.94;;;13.68;61.40
75594;BME280;64176;49.156;7.810;2023-06-05T05:52:07;99268.56;;;13.88;61.21
75594;BME280;64176;49.156;7.810;2023-06-05T05:54:53;99270.31;;;13.84;61.93
75594;BME280;64176;49.156;7.810;2023-06-05T05:57:37;99263.91;;;14.25;60.34
75594;BME280;64176;49.156;7.810;2023-06-05T06:00:24;99268.78;;;14.62;59.99
75594;BME280;64176;49.156;7.810;2023-06-05T06:03:08;99271.13;;;14.86;58.96
75594;BME280;64176;49.156;7.810;2023-06-05T06:05:53;99267.28;;;15.14;58.41
75594;BME280;64176;49.156;7.810;2023-06-05T06:08:39;99265.31;;;15.35;58.03
75594;BME280;64176;49.156;7.810;2023-06-05T06:11:23;99257.56;;;15.27;58.81
75594;BME280;64176;49.156;7.810;2023-06-05T06:14:07;99252.41;;;15.85;57.35
75594;BME280;64176;49.156;7.810;2023-06-05T06:16:56;99258.69;;;16.24;56.34
75594;BME280;64176;49.156;7.810;2023-06-05T06:19:42;99256.72;;;16.37;56.44
75594;BME280;64176;49.156;7.810;2023-06-05T06:22:28;99255.75;;;16.44;56.29
75594;BME280;64176;49.156;7.810;2023-06-05T06:25:13;99247.06;;;17.31;54.64
75594;BME280;64176;49.156;7.810;2023-06-05T06:28:00;99249.88;;;18.98;49.55
75594;BME280;64176;49.156;7.810;2023-06-05T06:30:44;99231.47;;;20.11;46.64
75594;BME280;64176;49.156;7.810;2023-06-05T06:33:29;99238.47;;;20.11;46.51
75594;BME280;64176;49.156;7.810;2023-06-05T06:36:15;99249.13;;;20.59;44.24
75594;BME280;64176;49.156;7.810;2023-06-05T06:39:01;99242.84;;;21.56;43.02
75594;BME280;64176;49.156;7.810;2023-06-05T06:41:45;99240.28;;;21.98;41.43
75594;BME280;64176;49.156;7.810;2023-06-05T06:44:29;99239.53;;;21.29;43.74
75594;BME280;64176;49.156;7.810;2023-06-05T06:47:14;99237.06;;;22.34;38.29
75594;BME280;64176;49.156;7.810;2023-06-05T06:49:59;99241.25;;;22.58;33.54
75594;BME280;64176;49.156;7.810;2023-06-05T06:52:43;99241.91;;;23.41;32.05
75594;BME280;64176;49.156;7.810;2023-06-05T06:55:27;99238.97;;;23.66;31.04
75594;BME280;64176;49.156;7.810;2023-06-05T06:58:11;99237.84;;;23.89;30.21
75594;BME280;64176;49.156;7.810;2023-06-05T07:00:55;99235.81;;;23.77;29.57
75594;BME280;64176;49.156;7.810;2023-06-05T07:03:44;99239.06;;;24.52;28.45
75594;BME280;64176;49.156;7.810;2023-06-05T07:06:28;99236.66;;;23.96;29.00
75594;BME280;64176;49.156;7.810;2023-06-05T07:09:12;99246.63;;;23.53;29.95
75594;BME280;64176;49.156;7.810;2023-06-05T07:11:56;99242.97;;;23.75;28.88
75594;BME280;64176;49.156;7.810;2023-06-05T07:14:41;99235.69;;;23.97;28.94
75594;BME280;64176;49.156;7.810;2023-06-05T07:17:28;99241.94;;;23.77;29.10
75594;BME280;64176;49.156;7.810;2023-06-05T07:20:14;99232.03;;;24.00;28.65
75594;BME280;64176;49.156;7.810;2023-06-05T07:22:58;99246.16;;;24.35;27.95
75594;BME280;64176;49.156;7.810;2023-06-05T07:25:44;99248.50;;;23.87;28.71
75594;BME280;64176;49.156;7.810;2023-06-05T07:28:29;99229.25;;;24.20;28.62
75594;BME280;64176;49.156;7.810;2023-06-05T07:31:15;99243.97;;;23.72;29.03
75594;BME280;64176;49.156;7.810;2023-06-05T07:34:00;99241.22;;;23.92;28.44
75594;BME280;64176;49.156;7.810;2023-06-05T07:36:50;99238.84;;;24.57;28.54
75594;BME280;64176;49.156;7.810;2023-06-05T07:39:35;99234.94;;;23.95;29.21
75594;BME280;64176;49.156;7.810;2023-06-05T07:42:19;99240.19;;;23.21;29.74
75594;BME280;64176;49.156;7.810;2023-06-05T07:45:04;99242.16;;;22.98;30.55
75594;BME280;64176;49.156;7.810;2023-06-05T07:47:51;99247.63;;;22.32;31.99
75594;BME280;64176;49.156;7.810;2023-06-05T07:50:35;99246.25;;;22.44;32.49
75594;BME280;64176;49.156;7.810;2023-06-05T07:53:21;99250.56;;;21.61;32.28
75594;BME280;64176;49.156;7.810;2023-06-05T07:56:05;99245.56;;;22.20;32.30
75594;BME280;64176;49.156;7.810;2023-06-05T07:58:52;99232.75;;;21.46;33.09
75594;BME280;64176;49.156;7.810;2023-06-05T08:01:36;99243.28;;;22.11;31.59
75594;BME280;64176;49.156;7.810;2023-06-05T08:04:22;99237.31;;;22.28;31.19
75594;BME280;64176;49.156;7.810;2023-06-05T08:07:13;99245.88;;;22.73;31.13
75594;BME280;64176;49.156;7.810;2023-06-05T08:10:00;99242.00;;;22.62;30.76
75594;BME280;64176;49.156;7.810;2023-06-05T08:12:44;99248.13;;;22.62;30.87
75594;BME280;64176;49.156;7.810;2023-06-05T08:15:28;99249.34;;;22.75;30.84
75594;BME280;64176;49.156;7.810;2023-06-05T08:18:14;99241.78;;;22.46;30.89
75594;BME280;64176;49.156;7.810;2023-06-05T08:21:00;99241.63;;;22.30;31.26
75594;BME280;64176;49.156;7.810;2023-06-05T08:23:46;99231.72;;;22.35;31.48
75594;BME280;64176;49.156;7.810;2023-06-05T08:26:32;99243.13;;;22.36;31.22
75594;BME280;64176;49.156;7.810;2023-06-05T08:29:16;99242.19;;;22.57;31.15
75594;BME280;64176;49.156;7.810;2023-06-05T08:32:00;99237.06;;;22.34;30.88
75594;BME280;64176;49.156;7.810;2023-06-05T08:34:47;99226.31;;;22.59;30.56
75594;BME280;64176;49.156;7.810;2023-06-05T08:37:34;99227.25;;;22.58;30.91
75594;BME280;64176;49.156;7.810;2023-06-05T08:40:23;99218.16;;;22.85;30.76
75594;BME280;64176;49.156;7.810;2023-06-05T08:43:09;99175.59;;;22.53;30.64
75594;BME280;64176;49.156;7.810;2023-06-05T08:45:58;99222.16;;;22.94;30.64
75594;BME280;64176;49.156;7.810;2023-06-05T08:48:47;99209.81;;;22.94;30.52
75594;BME280;64176;49.156;7.810;2023-06-05T08:51:36;99210.88;;;23.09;30.60
75594;BME280;64176;49.156;7.810;2023-06-05T08:54:20;99213.09;;;23.37;30.68
75594;BME280;64176;49.156;7.810;2023-06-05T08:57:10;99211.16;;;22.84;31.17
75594;BME280;64176;49.156;7.810;2023-06-05T08:59:59;99214.19;;;23.14;31.39
75594;BME280;64176;49.156;7.810;2023-06-05T09:02:44;99209.81;;;23.13;30.68
75594;BME280;64176;49.156;7.810;2023-06-05T09:05:31;99203.97;;;23.25;31.17
75594;BME280;64176;49.156;7.810;2023-06-05T09:08:16;99202.13;;;23.27;31.47
75594;BME280;64176;49.156;7.810;2023-06-05T09:11:20;99191.59;;;22.69;32.02
75594;BME280;64176;49.156;7.810;2023-06-05T09:14:05;99197.56;;;23.12;32.38
75594;BME280;64176;49.156;7.810;2023-06-05T09:16:50;99198.41;;;23.31;32.27
75594;BME280;64176;49.156;7.810;2023-06-05T09:19:39;99195.28;;;23.23;31.43
75594;BME280;64176;49.156;7.810;2023-06-05T09:22:33;99199.75;;;23.21;31.46
75594;BME280;64176;49.156;7.810;2023-06-05T09:25:18;99194.44;;;23.22;31.49
75594;BME280;64176;49.156;7.810;2023-06-05T09:28:06;99200.53;;;23.42;31.13
75594;BME280;64176;49.156;7.810;2023-06-05T09:30:57;99197.44;;;23.52;31.66
75594;BME280;64176;49.156;7.810;2023-06-05T09:33:54;99197.47;;;23.32;30.82
75594;BME280;64176;49.156;7.810;2023-06-05T09:36:45;99191.81;;;23.04;30.99
75594;BME280;64176;49.156;7.810;2023-06-05T09:39:31;99188.91;;;23.46;31.14
75594;BME280;64176;49.156;7.810;2023-06-05T09:42:31;99181.72;;;23.49;31.39
75594;BME280;64176;49.156;7.810;2023-06-05T09:45:17;99189.22;;;23.21;31.43
75594;BME280;64176;49.156;7.810;2023-06-05T09:48:15;99187.34;;;23.42;31.24
75594;BME280;64176;49.156;7.810;2023-06-05T09:51:11;99190.84;;;23.61;30.80
75594;BME280;64176;49.156;7.810;2023-06-05T09:53:58;99186.28;;;23.46;31.77
75594;BME280;64176;49.156;7.810;2023-06-05T09:56:47;99192.16;;;23.52;30.42
75594;BME280;64176;49.156;7.810;2023-06-05T09:59:40;99183.09;;;23.58;30.46
75594;BME280;64176;49.156;7.810;2023-06-05T10:02:35;99192.97;;;23.72;31.52
75594;BME280;64176;49.156;7.810;2023-06-05T10:05:19;99188.09;;;23.81;30.57
75594;BME280;64176;49.156;7.810;2023-06-05T10:08:05;99185.91;;;23.72;30.28
75594;BME280;64176;49.156;7.810;2023-06-05T10:10:49;99180.31;;;23.78;31.04
75594;BME280;64176;49.156;7.810;2023-06-05T10:13:34;99183.91;;;23.94;30.36
75594;BME280;64176;49.156;7.810;2023-06-05T10:16:21;99180.78;;;24.21;31.02
75594;BME280;64176;49.156;7.810;2023-06-05T10:19:08;99190.59;;;24.36;30.37
75594;BME280;64176;49.156;7.810;2023-06-05T10:21:55;99182.34;;;24.42;30.10
75594;BME280;64176;49.156;7.810;2023-06-05T10:24:45;99177.19;;;24.41;29.50
75594;BME280;64176;49.156;7.810;2023-06-05T10:32:12;99182.38;;;24.08;29.62
75594;BME280;64176;49.156;7.810;2023-06-05T10:38:19;99176.53;;;24.01;28.02
75594;BME280;64176;49.156;7.810;2023-06-05T10:41:07;99186.22;;;24.01;29.65
75594;BME280;64176;49.156;7.810;2023-06-05T10:43:54;99180.03;;;24.36;29.33
75594;BME280;64176;49.156;7.810;2023-06-05T10:46:39;99181.31;;;24.29;29.34
75594;BME280;64176;49.156;7.810;2023-06-05T10:49:26;99184.06;;;24.43;28.52
75594;BME280;64176;49.156;7.810;2023-06-05T10:52:36;99180.63;;;24.41;28.35
75594;BME280;64176;49.156;7.810;2023-06-05T10:55:22;99172.53;;;24.61;28.21
75594;BME280;64176;49.156;7.810;2023-06-05T10:58:07;99168.22;;;24.43;27.43
75594;BME280;64176;49.156;7.810;2023-06-05T11:01:20;99173.41;;;24.62;27.71
75594;BME280;64176;49.156;7.810;2023-06-05T11:04:04;99174.13;;;24.31;27.10
75594;BME280;64176;49.156;7.810;2023-06-05T11:10:14;99160.31;;;24.26;28.05
75594;BME280;64176;49.156;7.810;2023-06-05T11:13:04;99167.41;;;24.58;28.46
75594;BME280;64176;49.156;7.810;2023-06-05T11:15:49;99163.56;;;24.97;28.39
75594;BME280;64176;49.156;7.810;2023-06-05T11:18:37;99162.66;;;24.98;26.89
75594;BME280;64176;49.156;7.810;2023-06-05T11:21:23;99157.38;;;25.14;27.59
75594;BME280;64176;49.156;7.810;2023-06-05T11:24:34;99146.19;;;25.40;28.20
75594;BME280;64176;49.156;7.810;2023-06-05T11:27:41;99161.97;;;25.10;27.06
75594;BME280;64176;49.156;7.810;2023-06-05T11:30:30;99162.75;;;24.79;25.82
75594;BME280;64176;49.156;7.810;2023-06-05T11:33:19;99153.47;;;24.72;26.86
75594;BME280;64176;49.156;7.810;2023-06-05T11:36:09;99159.47;;;24.91;27.92
75594;BME280;64176;49.156;7.810;2023-06-05T11:38:55;99146.06;;;24.79;26.78
75594;BME280;64176;49.156;7.810;2023-06-05T11:41:45;99157.13;;;25.18;26.96
75594;BME280;64176;49.156;7.810;2023-06-05T11:44:34;99145.53;;;25.05;25.47
75594;BME280;64176;49.156;7.810;2023-06-05T11:47:25;99153.59;;;25.49;24.65
75594;BME280;64176;49.156;7.810;2023-06-05T11:50:13;99156.69;;;24.77;26.34
75594;BME280;64176;49.156;7.810;2023-06-05T11:53:07;99151.50;;;25.40;25.92
75594;BME280;64176;49.156;7.810;2023-06-05T11:55:52;99145.28;;;24.77;25.51
75594;BME280;64176;49.156;7.810;2023-06-05T11:58:38;99145.56;;;25.66;25.51
75594;BME280;64176;49.156;7.810;2023-06-05T12:01:23;99146.00;;;25.43;25.59
75594;BME280;64176;49.156;7.810;2023-06-05T12:04:09;99146.69;;;25.47;23.98
75594;BME280;64176;49.156;7.810;2023-06-05T12:06:56;99153.78;;;25.30;23.29
75594;BME280;64176;49.156;7.810;2023-06-05T12:09:50;99148.66;;;25.43;22.35
75594;BME280;64176;49.156;7.810;2023-06-05T12:15:33;99146.84;;;25.44;23.60
75594;BME280;64176;49.156;7.810;2023-06-05T12:18:18;99140.81;;;25.10;23.88
75594;BME280;64176;49.156;7.810;2023-06-05T12:21:15;99148.84;;;24.76;23.86
75594;BME280;64176;49.156;7.810;2023-06-05T12:24:05;99138.50;;;25.20;25.04
75594;BME280;64176;49.156;7.810;2023-06-05T12:29:39;99136.59;;;25.53;20.84
75594;BME280;64176;49.156;7.810;2023-06-05T12:32:35;99127.91;;;25.35;22.01
75594;BME280;64176;49.156;7.810;2023-06-05T12:35:23;99128.00;;;25.34;23.77
75594;BME280;64176;49.156;7.810;2023-06-05T12:38:14;99131.88;;;25.28;24.39
75594;BME280;64176;49.156;7.810;2023-06-05T12:41:01;99125.72;;;25.12;25.55
75594;BME280;64176;49.156;7.810;2023-06-05T12:43:45;99128.31;;;25.44;24.72
75594;BME280;64176;49.156;7.810;2023-06-05T12:46:32;99131.06;;;25.42;23.93
75594;BME280;64176;49.156;7.810;2023-06-05T12:49:16;99109.78;;;25.59;23.91
75594;BME280;64176;49.156;7.810;2023-06-05T12:52:03;99123.47;;;25.36;23.47
75594;BME280;64176;49.156;7.810;2023-06-05T12:54:50;99110.59;;;25.30;24.22
75594;BME280;64176;49.156;7.810;2023-06-05T12:57:37;99111.56;;;25.59;23.93
75594;BME280;64176;49.156;7.810;2023-06-05T13:00:21;99118.84;;;24.77;25.85
75594;BME280;64176;49.156;7.810;2023-06-05T13:03:07;99092.53;;;24.42;26.27
75594;BME280;64176;49.156;7.810;2023-06-05T13:05:55;99098.41;;;25.27;25.80
75594;BME280;64176;49.156;7.810;2023-06-05T13:08:41;99102.66;;;25.75;24.79
75594;BME280;64176;49.156;7.810;2023-06-05T13:11:28;99091.41;;;25.11;25.11
75594;BME280;64176;49.156;7.810;2023-06-05T13:14:12;99093.06;;;25.59;24.81
75594;BME280;64176;49.156;7.810;2023-06-05T13:16:59;99092.09;;;25.60;25.48
75594;BME280;64176;49.156;7.810;2023-06-05T13:19:45;99094.06;;;25.56;24.65
75594;BME280;64176;49.156;7.810;2023-06-05T13:22:29;99089.56;;;25.88;24.16
75594;BME280;64176;49.156;7.810;2023-06-05T13:25:16;99087.75;;;25.89;25.22
75594;BME280;64176;49.156;7.810;2023-06-05T13:28:00;99094.41;;;25.96;24.96
75594;BME280;64176;49.156;7.810;2023-06-05T13:30:44;99084.22;;;25.74;23.63
75594;BME280;64176;49.156;7.810;2023-06-05T13:33:28;99080.97;;;25.85;24.73
75594;BME280;64176;49.156;7.810;2023-06-05T13:36:12;99063.31;;;25.69;24.57
75594;BME280;64176;49.156;7.810;2023-06-05T13:38:56;99071.09;;;25.57;25.14
75594;BME280;64176;49.156;7.810;2023-06-05T13:41:40;99068.09;;;25.93;24.38
75594;BME280;64176;49.156;7.810;2023-06-05T13:44:24;99062.38;;;25.70;27.15
75594;BME280;64176;49.156;7.810;2023-06-05T13:47:10;99060.53;;;25.57;25.89
75594;BME280;64176;49.156;7.810;2023-06-05T13:49:59;99048.97;;;25.88;25.68
75594;BME280;64176;49.156;7.810;2023-06-05T13:52:45;99064.13;;;26.00;25.71
75594;BME280;64176;49.156;7.810;2023-06-05T13:55:30;99054.53;;;25.69;26.03
75594;BME280;64176;49.156;7.810;2023-06-05T13:58:14;99055.09;;;25.74;26.23
75594;BME280;64176;49.156;7.810;2023-06-05T14:01:01;99049.63;;;25.77;25.46
75594;BME280;64176;49.156;7.810;2023-06-05T14:03:50;99050.00;;;25.71;26.86
75594;BME280;64176;49.156;7.810;2023-06-05T14:06:34;99043.72;;;26.02;26.30
75594;BME280;64176;49.156;7.810;2023-06-05T14:09:22;99039.28;;;26.17;26.85
75594;BME280;64176;49.156;7.810;2023-06-05T14:12:07;99046.84;;;25.94;27.25
75594;BME280;64176;49.156;7.810;2023-06-05T14:14:53;99047.06;;;25.61;27.89
75594;BME280;64176;49.156;7.810;2023-06-05T14:17:39;99040.66;;;25.50;28.47
75594;BME280;64176;49.156;7.810;2023-06-05T14:20:28;99052.94;;;25.51;28.41
75594;BME280;64176;49.156;7.810;2023-06-05T14:23:18;99051.88;;;25.39;28.90
75594;BME280;64176;49.156;7.810;2023-06-05T14:26:09;99038.28;;;25.45;28.19
75594;BME280;64176;49.156;7.810;2023-06-05T14:28:55;99036.00;;;25.69;27.81
75594;BME280;64176;49.156;7.810;2023-06-05T14:31:42;99020.47;;;25.63;27.54
75594;BME280;64176;49.156;7.810;2023-06-05T14:34:28;99027.06;;;26.00;27.57
75594;BME280;64176;49.156;7.810;2023-06-05T14:37:14;99022.44;;;26.18;27.76
75594;BME280;64176;49.156;7.810;2023-06-05T14:40:01;99025.06;;;25.89;27.96
75594;BME280;64176;49.156;7.810;2023-06-05T14:42:45;99028.59;;;26.04;27.61
75594;BME280;64176;49.156;7.810;2023-06-05T14:45:29;99020.47;;;26.35;27.64
75594;BME280;64176;49.156;7.810;2023-06-05T14:48:13;99024.81;;;26.51;26.71
75594;BME280;64176;49.156;7.810;2023-06-05T14:50:57;99032.75;;;26.51;26.45
75594;BME280;64176;49.156;7.810;2023-06-05T14:53:43;99036.31;;;26.21;26.65
75594;BME280;64176;49.156;7.810;2023-06-05T14:56:27;99036.84;;;25.69;26.68
75594;BME280;64176;49.156;7.810;2023-06-05T14:59:19;99035.75;;;25.73;27.45
75594;BME280;64176;49.156;7.810;2023-06-05T15:02:03;99027.72;;;25.59;26.85
75594;BME280;64176;49.156;7.810;2023-06-05T15:04:47;99028.56;;;25.90;25.95